createdAt,value
2022-09-07T00:01:15.686Z,74.03
2022-09-07T00:03:43.154Z,73.95
2022-09-07T00:06:13.091Z,74.01
2022-09-07T00:08:43.952Z,73.99
2022-09-07T00:11:15.670Z,74.24
2022-09-07T00:13:46.100Z,74.08
2022-09-07T00:16:22.641Z,74.46
2022-09-07T00:18:53.959Z,74.40
2022-09-07T00:21:21.602Z,73.59
2022-09-07T00:23:50.665Z,74.25
2022-09-07T00:26:21.865Z,74.24
2022-09-07T00:28:51.029Z,73.87
2022-09-07T00:31:23.083Z,73.51
2022-09-07T00:33:54.434Z,74.53
2022-09-07T00:36:23.451Z,74.00
2022-09-07T00:38:53.486Z,73.92
2022-09-07T00:41:22.116Z,74.24
2022-09-07T00:43:55.649Z,74.58
2022-09-07T00:46:34.031Z,74.34
2022-09-07T00:53:32.000Z,74.28
2022-09-07T00:56:00.133Z,73.84
2022-09-07T00:58:55.078Z,74.52
2022-09-07T01:01:22.609Z,74.00
2022-09-07T01:03:52.666Z,73.96
2022-09-07T01:06:26.770Z,74.43
2022-09-07T01:09:00.402Z,74.22
2022-09-07T01:11:27.568Z,73.90
2022-09-07T01:13:55.707Z,73.91
2022-09-07T01:16:32.170Z,73.58
2022-09-07T01:19:20.169Z,74.09
2022-09-07T01:22:08.716Z,74.26
2022-09-07T01:24:42.552Z,74.03
2022-09-07T01:27:35.523Z,74.23
2022-09-07T01:30:09.784Z,73.91
2022-09-07T01:33:10.013Z,74.52
2022-09-07T01:35:43.365Z,73.65
2022-09-07T01:38:25.554Z,74.71
2022-09-07T01:41:30.512Z,74.34
2022-09-07T01:44:11.264Z,74.39
2022-09-07T01:46:54.062Z,74.57
2022-09-07T01:49:27.513Z,74.68
2022-09-07T01:52:03.122Z,75.04
2022-09-07T01:54:34.872Z,74.44
2022-09-07T01:57:09.428Z,74.64
2022-09-07T01:59:43.414Z,74.79
2022-09-07T02:02:16.935Z,75.00
2022-09-07T02:04:52.662Z,75.26
2022-09-07T02:08:04.892Z,75.82
2022-09-07T02:10:41.269Z,74.85
2022-09-07T02:13:18.675Z,75.67
2022-09-07T02:15:55.203Z,75.38
2022-09-07T02:18:28.222Z,74.92
2022-09-07T02:20:59.775Z,74.49
2022-09-07T02:23:33.342Z,75.24
2022-09-07T02:26:05.043Z,74.69
2022-09-07T02:30:03.320Z,75.46
2022-09-07T02:32:30.585Z,74.40
2022-09-07T02:35:05.463Z,74.94
2022-09-07T02:37:34.515Z,74.74
2022-09-07T02:40:05.006Z,74.55
2022-09-07T02:42:34.570Z,74.71
2022-09-07T02:45:05.744Z,74.91
2022-09-07T02:47:40.225Z,75.94
2022-09-07T02:50:34.571Z,75.12
2022-09-07T02:53:04.773Z,75.55
2022-09-07T02:56:54.116Z,76.46
2022-09-07T02:59:45.832Z,76.31
2022-09-07T03:02:31.916Z,76.32
2022-09-07T03:05:05.299Z,75.34
2022-09-07T03:07:44.401Z,74.85
2022-09-07T03:10:14.100Z,74.99
2022-09-07T03:12:45.307Z,76.53
2022-09-07T03:15:22.248Z,75.17
2022-09-07T03:17:54.271Z,74.87
2022-09-07T03:20:22.520Z,74.72
2022-09-07T03:22:51.382Z,75.21
2022-09-07T03:25:19.185Z,74.68
2022-09-07T03:27:48.959Z,74.79
2022-09-07T03:30:16.380Z,75.23
2022-09-07T03:32:43.762Z,74.95
2022-09-07T03:35:11.561Z,74.80
2022-09-07T03:37:39.382Z,75.34
2022-09-07T03:40:09.556Z,75.61
2022-09-07T03:42:37.333Z,75.15
2022-09-07T03:45:07.815Z,75.26
2022-09-07T03:47:37.800Z,75.48
2022-09-07T03:50:06.539Z,75.92
2022-09-07T03:52:35.231Z,75.38
2022-09-07T03:55:05.469Z,75.84
2022-09-07T04:02:02.380Z,75.29
2022-09-07T04:04:29.603Z,75.10
2022-09-07T04:07:02.664Z,75.51
2022-09-07T04:09:30.354Z,75.36
2022-09-07T04:11:57.700Z,75.11
2022-09-07T04:14:25.135Z,75.54
2022-09-07T04:16:52.540Z,75.56
2022-09-07T04:19:55.061Z,75.47
2022-09-07T04:22:54.390Z,75.83
2022-09-07T04:25:51.545Z,75.48
2022-09-07T04:28:22.714Z,74.88
2022-09-07T04:30:54.887Z,74.60
2022-09-07T04:33:25.286Z,74.67
2022-09-07T04:35:55.903Z,74.39
2022-09-07T04:38:24.598Z,74.95
2022-09-07T04:41:03.080Z,74.69
2022-09-07T04:43:48.428Z,74.43
2022-09-07T04:46:21.950Z,73.44
2022-09-07T04:50:10.965Z,72.25
2022-09-07T04:52:41.422Z,72.28
2022-09-07T04:55:16.602Z,72.01
2022-09-07T04:57:49.830Z,70.80
2022-09-07T05:00:17.696Z,70.86
2022-09-07T05:02:45.020Z,69.80
2022-09-07T05:05:12.480Z,69.71
2022-09-07T05:07:40.526Z,69.31
2022-09-07T05:10:08.344Z,68.82
2022-09-07T05:12:36.001Z,68.04
2022-09-07T05:15:03.541Z,67.06
2022-09-07T05:17:31.397Z,64.65
2022-09-07T05:19:58.725Z,63.66
2022-09-07T05:22:25.833Z,63.03
2022-09-07T05:24:52.967Z,64.21
2022-09-07T05:27:20.265Z,64.26
2022-09-07T05:30:03.845Z,64.64
2022-09-07T05:32:32.346Z,65.28
2022-09-07T05:34:59.441Z,65.52
2022-09-07T05:37:26.819Z,65.35
2022-09-07T05:39:57.298Z,65.58
2022-09-07T05:42:24.619Z,66.15
2022-09-07T05:44:51.784Z,65.85
2022-09-07T05:47:19.088Z,66.22
2022-09-07T05:49:46.435Z,66.37
2022-09-07T05:52:13.807Z,66.47
2022-09-07T05:54:41.059Z,66.48
2022-09-07T05:57:11.513Z,66.26
2022-09-07T05:59:38.923Z,66.20
2022-09-07T06:02:07.304Z,66.05
2022-09-07T06:04:35.801Z,66.03
2022-09-07T06:07:21.191Z,66.47
2022-09-07T06:12:36.667Z,64.34
2022-09-07T06:15:05.690Z,62.46
2022-09-07T06:17:34.115Z,59.44
2022-09-07T06:20:01.282Z,57.88
2022-09-07T06:22:31.135Z,55.63
2022-09-07T06:24:58.862Z,54.19
2022-09-07T06:27:26.354Z,52.46
2022-09-07T06:29:53.402Z,53.11
2022-09-07T06:35:08.576Z,54.92
2022-09-07T06:37:38.452Z,54.54
2022-09-07T06:40:06.234Z,54.50
2022-09-07T06:42:33.681Z,54.15
2022-09-07T06:45:00.954Z,54.71
2022-09-07T06:47:28.547Z,54.89
2022-09-07T06:49:55.733Z,55.17
2022-09-07T06:52:25.425Z,55.26
2022-09-07T06:57:27.355Z,55.01
2022-09-07T06:59:55.358Z,55.61
2022-09-07T07:02:22.498Z,55.77
2022-09-07T07:04:50.474Z,56.34
2022-09-07T07:07:17.814Z,56.17
2022-09-07T07:09:45.154Z,56.41
2022-09-07T07:12:12.466Z,56.47
2022-09-07T07:14:42.681Z,55.52
2022-09-07T07:17:13.798Z,55.53
2022-09-07T07:19:41.036Z,55.50
2022-09-07T07:22:23.741Z,55.26
2022-09-07T07:24:56.545Z,54.72
2022-09-07T07:27:27.621Z,54.44
2022-09-07T07:29:54.891Z,54.04
2022-09-07T07:32:22.227Z,53.97
2022-09-07T07:34:49.323Z,54.04
2022-09-07T07:37:17.420Z,53.47
2022-09-07T07:42:32.950Z,53.51
2022-09-07T07:47:52.466Z,53.41
2022-09-07T07:50:35.117Z,53.87
2022-09-07T07:55:50.396Z,54.35
2022-09-07T07:58:19.738Z,54.28
2022-09-07T08:00:56.173Z,53.37
2022-09-07T08:03:26.555Z,53.04
2022-09-07T08:05:55.932Z,50.88
2022-09-07T08:08:25.356Z,49.03
2022-09-07T08:10:55.317Z,49.23
2022-09-07T08:13:23.528Z,49.32
2022-09-07T08:15:50.933Z,49.38
2022-09-07T08:18:18.505Z,49.47
2022-09-07T08:20:47.266Z,50.89
2022-09-07T08:23:16.006Z,51.49
2022-09-07T08:25:52.108Z,51.88
2022-09-07T08:28:23.721Z,50.71
2022-09-07T08:30:50.982Z,50.28
2022-09-07T08:33:21.226Z,49.56
2022-09-07T08:36:00.606Z,47.50
2022-09-07T08:38:30.763Z,47.72
2022-09-07T08:40:59.055Z,47.05
2022-09-07T08:43:58.330Z,46.58
2022-09-07T08:46:41.155Z,48.30
2022-09-07T08:49:28.046Z,49.24
2022-09-07T08:52:04.371Z,50.54
2022-09-07T08:54:36.432Z,49.41
2022-09-07T08:57:27.253Z,45.82
2022-09-07T09:00:10.459Z,41.58
2022-09-07T09:02:43.504Z,42.36
2022-09-07T09:05:28.058Z,39.37
2022-09-07T09:08:29.112Z,41.84
2022-09-07T09:11:06.285Z,43.99
2022-09-07T09:14:04.501Z,44.52
2022-09-07T09:16:53.337Z,44.90
2022-09-07T09:19:42.007Z,44.82
2022-09-07T09:22:22.962Z,44.57
2022-09-07T09:25:06.213Z,44.57
2022-09-07T09:27:45.937Z,44.60
2022-09-07T09:30:34.340Z,45.35
2022-09-07T09:33:23.142Z,46.28
2022-09-07T09:36:26.343Z,48.21
2022-09-07T09:39:08.959Z,48.41
2022-09-07T09:41:57.378Z,47.98
2022-09-07T09:44:44.518Z,48.38
2022-09-07T09:47:37.100Z,47.50
2022-09-07T09:53:43.570Z,44.79
2022-09-07T09:56:18.093Z,43.55
2022-09-07T10:06:03.703Z,41.90
2022-09-07T10:08:42.530Z,41.71
2022-09-07T10:12:07.598Z,42.63
2022-09-07T10:14:45.229Z,44.81
2022-09-07T10:17:50.445Z,46.15
2022-09-07T10:20:57.318Z,46.22
2022-09-07T10:23:55.803Z,46.61
2022-09-07T10:30:07.130Z,47.07
2022-09-07T10:33:15.604Z,47.73
2022-09-07T10:36:34.625Z,48.34
2022-09-07T10:40:08.952Z,50.00
2022-09-07T10:43:22.290Z,49.91
2022-09-07T10:46:56.376Z,51.48
2022-09-07T10:49:18.703Z,51.29
2022-09-07T10:52:17.336Z,52.40
2022-09-07T10:55:02.089Z,52.82
2022-09-07T10:57:59.850Z,54.43
2022-09-07T11:00:48.746Z,54.26
2022-09-07T11:03:52.223Z,55.90
2022-09-07T11:06:58.059Z,58.35
2022-09-07T11:10:15.029Z,58.49
2022-09-07T11:13:13.542Z,58.39
2022-09-07T11:15:51.499Z,58.38
2022-09-07T11:18:44.418Z,59.88
2022-09-07T11:24:41.362Z,64.22
2022-09-07T11:27:57.768Z,64.30
2022-09-07T11:30:39.696Z,65.91
2022-09-07T11:36:50.966Z,66.55
2022-09-07T11:39:41.382Z,67.50
2022-09-07T11:42:44.109Z,69.30
2022-09-07T11:45:15.303Z,66.34
2022-09-07T11:48:32.770Z,70.21
2022-09-07T11:51:45.399Z,70.69
2022-09-07T11:58:33.776Z,72.17
2022-09-07T12:02:08.825Z,72.13
2022-09-07T12:05:46.699Z,72.93
2022-09-07T12:08:44.579Z,72.27
2022-09-07T12:14:02.523Z,74.64
2022-09-07T12:16:41.623Z,74.13
2022-09-07T12:19:47.481Z,72.60
2022-09-07T12:22:25.730Z,71.93
2022-09-07T12:25:43.121Z,75.01
2022-09-07T12:29:02.375Z,77.07
2022-09-07T12:36:24.936Z,75.71
2022-09-07T12:39:49.286Z,77.15
2022-09-07T12:42:57.299Z,75.32
2022-09-07T12:45:45.166Z,75.88
2022-09-07T12:48:30.373Z,76.93
2022-09-07T12:54:46.437Z,78.88
2022-09-07T12:58:03.321Z,80.09
2022-09-07T13:01:22.568Z,79.09
2022-09-07T13:04:33.129Z,80.42
2022-09-07T13:11:34.392Z,81.18
2022-09-07T13:14:16.968Z,79.61
2022-09-07T13:19:54.586Z,80.12
2022-09-07T13:22:49.794Z,79.42
2022-09-07T13:26:01.071Z,81.43
2022-09-07T13:30:01.591Z,82.82
2022-09-07T13:35:47.919Z,81.62
2022-09-07T13:39:27.419Z,83.76
2022-09-07T13:42:04.592Z,85.02
2022-09-07T13:45:01.691Z,82.78
2022-09-07T13:48:10.914Z,85.96
2022-09-07T13:51:10.977Z,85.40
2022-09-07T13:54:42.613Z,86.59
2022-09-07T13:58:49.348Z,86.10
2022-09-07T14:01:05.770Z,86.20
2022-09-07T14:04:37.637Z,83.77
2022-09-07T14:07:25.861Z,85.35
2022-09-07T14:10:28.535Z,86.91
2022-09-07T14:13:17.611Z,85.81
2022-09-07T14:15:51.239Z,86.27
2022-09-07T14:18:31.673Z,86.38
2022-09-07T14:21:01.953Z,84.97
2022-09-07T14:23:40.145Z,84.98
2022-09-07T14:26:19.503Z,85.89
2022-09-07T14:28:59.829Z,86.15
2022-09-07T14:31:34.765Z,84.89
2022-09-07T14:34:02.936Z,85.49
2022-09-07T14:36:45.830Z,85.18
2022-09-07T14:39:19.942Z,85.16
2022-09-07T14:41:51.238Z,85.51
2022-09-07T14:44:36.312Z,86.33
2022-09-07T14:47:52.761Z,86.56
2022-09-07T14:50:34.044Z,84.95
2022-09-07T14:56:08.301Z,85.64
2022-09-07T14:58:55.891Z,85.41
2022-09-07T15:02:03.114Z,85.59
2022-09-07T15:05:55.497Z,86.80
2022-09-07T15:09:52.681Z,86.96
2022-09-07T15:12:39.223Z,85.01
2022-09-07T15:16:01.571Z,85.40
2022-09-07T15:19:37.080Z,85.25
2022-09-07T15:22:23.389Z,85.42
2022-09-07T15:25:17.604Z,84.58
2022-09-07T15:27:58.739Z,85.04
2022-09-07T15:34:14.181Z,84.11
2022-09-07T15:43:28.920Z,84.42
2022-09-07T15:46:07.733Z,85.17
2022-09-07T15:49:05.293Z,84.38
2022-09-07T15:52:06.615Z,84.75
2022-09-07T15:55:41.348Z,84.68
2022-09-07T15:58:12.210Z,84.49
2022-09-07T16:04:10.952Z,84.84
2022-09-07T16:08:24.640Z,84.48
2022-09-07T16:09:31.406Z,84.86
2022-09-07T16:15:12.674Z,84.58
2022-09-07T16:18:05.804Z,84.64
2022-09-07T16:21:28.516Z,84.69
2022-09-07T16:24:33.074Z,84.67
2022-09-07T16:27:21.474Z,85.15
2022-09-07T16:30:34.835Z,85.04
2022-09-07T16:33:06.171Z,84.13
2022-09-07T16:37:11.613Z,84.79
2022-09-07T16:38:48.571Z,84.35
2022-09-07T16:41:27.373Z,84.30
2022-09-07T16:43:55.148Z,84.98
2022-09-07T16:46:27.155Z,84.60
2022-09-07T16:49:01.149Z,85.38
2022-09-07T16:51:33.862Z,85.49
2022-09-07T16:54:08.254Z,85.52
2022-09-07T16:56:39.077Z,85.44
2022-09-07T16:59:18.709Z,85.97
2022-09-07T17:01:49.187Z,84.96
2022-09-07T17:04:22.243Z,84.99
2022-09-07T17:06:59.761Z,85.19
2022-09-07T17:13:40.545Z,85.17
2022-09-07T17:16:08.661Z,85.15
2022-09-07T17:21:39.276Z,84.95
2022-09-07T17:24:08.363Z,84.66
2022-09-07T17:26:36.286Z,84.71
2022-09-07T17:29:04.705Z,85.12
2022-09-07T17:34:33.109Z,85.16
2022-09-07T17:37:03.982Z,84.49
2022-09-07T17:39:31.620Z,84.64
2022-09-07T17:45:46.041Z,84.63
2022-09-07T17:48:30.586Z,84.68
2022-09-07T17:51:10.349Z,84.37
2022-09-07T17:53:39.679Z,84.41
2022-09-07T17:56:45.488Z,84.09
2022-09-07T18:02:37.582Z,83.71
2022-09-07T18:05:07.948Z,84.24
2022-09-07T18:07:36.657Z,84.56
2022-09-07T18:10:14.249Z,84.01
2022-09-07T18:12:50.530Z,83.72
2022-09-07T18:15:22.898Z,84.18
2022-09-07T18:17:55.287Z,84.15
2022-09-07T18:20:24.409Z,83.73
2022-09-07T18:22:51.881Z,83.87
2022-09-07T18:25:19.326Z,83.48
2022-09-07T18:30:44.856Z,82.51
2022-09-07T18:33:19.517Z,82.93
2022-09-07T18:36:07.966Z,82.84
2022-09-07T18:38:38.237Z,83.23
2022-09-07T18:41:11.524Z,82.67
2022-09-07T18:43:49.995Z,83.40
2022-09-07T18:46:22.509Z,83.34
2022-09-07T18:48:54.279Z,83.22
2022-09-07T18:51:25.491Z,83.88
2022-09-07T18:53:55.526Z,83.69
2022-09-07T18:56:36.491Z,84.19
2022-09-07T18:59:09.790Z,83.60
2022-09-07T19:01:38.382Z,84.09
2022-09-07T19:04:06.536Z,83.76
2022-09-07T19:06:34.077Z,83.67
2022-09-07T19:09:13.958Z,84.21
2022-09-07T19:11:44.437Z,84.17
2022-09-07T19:14:22.591Z,84.09
2022-09-07T19:16:50.178Z,84.06
2022-09-07T19:19:28.768Z,84.17
2022-09-07T19:22:04.953Z,84.75
2022-09-07T19:24:33.202Z,84.74
2022-09-07T19:27:01.305Z,83.89
2022-09-07T19:30:15.351Z,84.73
2022-09-07T19:33:32.537Z,85.39
2022-09-07T19:35:39.249Z,84.67
2022-09-07T19:43:05.384Z,84.89
2022-09-07T19:45:41.306Z,85.44
2022-09-07T19:48:12.869Z,85.23
2022-09-07T19:50:52.291Z,85.14
2022-09-07T19:53:27.061Z,85.10
2022-09-07T19:56:02.806Z,84.86
2022-09-07T19:58:35.504Z,85.48
2022-09-07T20:01:17.518Z,85.22
2022-09-07T20:03:47.143Z,84.59
2022-09-07T20:06:15.951Z,85.09
2022-09-07T20:08:46.281Z,85.15
2022-09-07T20:11:16.147Z,84.39
2022-09-07T20:13:44.352Z,84.71
2022-09-07T20:16:13.847Z,84.53
2022-09-07T20:18:42.812Z,84.58
2022-09-07T20:21:13.818Z,85.13
2022-09-07T20:23:41.267Z,84.92
2022-09-07T20:26:11.359Z,84.43
2022-09-07T20:28:39.396Z,84.68
2022-09-07T20:31:15.159Z,85.02
2022-09-07T20:33:44.482Z,84.45
2022-09-07T20:36:17.156Z,84.56
2022-09-07T20:38:54.379Z,85.48
2022-09-07T20:41:24.667Z,84.74
2022-09-07T20:43:52.270Z,85.74
2022-09-07T20:46:19.638Z,85.60
2022-09-07T20:53:13.343Z,86.05
2022-09-07T20:55:40.475Z,86.56
2022-09-07T20:58:09.176Z,87.13
2022-09-07T21:00:36.645Z,86.46
2022-09-07T21:03:04.236Z,85.90
2022-09-07T21:05:31.777Z,85.90
2022-09-07T21:07:59.239Z,86.74
2022-09-07T21:10:27.264Z,86.30
2022-09-07T21:12:55.073Z,86.59
2022-09-07T21:15:22.128Z,86.45
2022-09-07T21:17:49.385Z,86.41
2022-09-07T21:20:16.623Z,86.62
2022-09-07T21:22:43.686Z,86.61
2022-09-07T21:25:10.924Z,86.55
2022-09-07T21:27:39.335Z,86.45
2022-09-07T21:30:07.288Z,85.90
2022-09-07T21:32:34.777Z,86.73
2022-09-07T21:35:02.806Z,86.36
2022-09-07T21:37:30.290Z,86.57
2022-09-07T21:39:58.308Z,86.17
2022-09-07T21:42:26.043Z,86.30
2022-09-07T21:44:55.524Z,86.36
2022-09-07T21:47:50.746Z,85.93
2022-09-07T21:50:17.949Z,85.35
2022-09-07T21:52:45.517Z,85.47
2022-09-07T21:55:12.629Z,85.13
2022-09-07T21:57:40.938Z,85.43
2022-09-07T22:00:10.503Z,85.60
2022-09-07T22:02:37.925Z,85.53
2022-09-07T22:05:05.407Z,85.88
2022-09-07T22:07:33.009Z,85.73
2022-09-07T22:10:02.732Z,85.74
2022-09-07T22:12:29.966Z,85.83
2022-09-07T22:14:57.223Z,85.85
2022-09-07T22:17:26.837Z,85.48
2022-09-07T22:19:53.975Z,85.86
2022-09-07T22:22:21.297Z,85.17
2022-09-07T22:24:48.652Z,85.38
2022-09-07T22:27:15.978Z,85.74
2022-09-07T22:29:45.824Z,85.80
2022-09-07T22:32:13.044Z,85.94
2022-09-07T22:34:41.836Z,85.84
2022-09-07T22:37:10.301Z,85.42
2022-09-07T22:39:38.908Z,85.10
2022-09-07T22:42:06.278Z,84.83
2022-09-07T22:44:33.429Z,85.31
2022-09-07T22:47:00.629Z,85.39
2022-09-07T22:49:29.101Z,84.82
2022-09-07T22:51:56.302Z,84.88
2022-09-07T22:54:23.742Z,84.38
2022-09-07T22:56:51.100Z,84.83
2022-09-07T22:59:19.551Z,84.77
2022-09-07T23:01:47.222Z,84.73
2022-09-07T23:04:17.378Z,84.68
2022-09-07T23:06:44.626Z,84.35
2022-09-07T23:09:17.474Z,84.70
2022-09-07T23:11:46.872Z,84.40
2022-09-07T23:14:20.526Z,84.32
2022-09-07T23:16:48.470Z,84.40
2022-09-07T23:20:46.751Z,84.60
2022-09-07T23:23:14.415Z,84.91
2022-09-07T23:25:43.149Z,84.25
2022-09-07T23:28:40.045Z,85.27
2022-09-07T23:31:10.415Z,84.47
2022-09-07T23:33:37.741Z,84.81
2022-09-07T23:36:09.628Z,84.99
2022-09-07T23:39:02.069Z,84.16
2022-09-07T23:41:29.334Z,84.83
2022-09-07T23:43:57.261Z,83.78
2022-09-07T23:46:24.704Z,84.50
2022-09-07T23:48:56.102Z,84.38
2022-09-07T23:51:24.801Z,84.20
2022-09-07T23:53:53.552Z,84.10
2022-09-07T23:56:22.113Z,84.36
2022-09-07T23:58:49.611Z,83.78
